EW8472 Weather Reports


time (UTC)temp
C
wind
direction
speed
KPH
gust
KPH
rain 1hr
cm
rain 24hr
cm
rain mn
cm
humidity
%
barometer
mb
20200229071802 18 167 1.6 9.7 0.03 0.08 0.05 90 1021.1
20200229064638 18 145 1.6 9.7 0.03 0.05 0.03 90 1021.5
20200229063057 18 146 3.2 14.5 0.03 0.05 0.03 90 1021.6
20200229060158 18 171 3.2 14.5 0.00 0.05 0.00 90 1022.1
20200229054649 18 182 1.6 6.4 0.00 0.05 0.05 90 1022.2
20200229052113 17 146 4.8 12.9 0.00 0.05 0.05 90 1022.2
20200229044643 17 150 4.8 14.5 0.00 0.05 0.05 90 1022.2
20200229043216 18 173 4.8 14.5 0.00 0.05 0.05 90 1022.3
20200229041535 18 180 4.8 14.5 0.00 0.05 0.05 89 1022.3
20200229033119 18 166 3.2 12.9 0.00 0.05 0.05 89 1022.4
20200229031600 18 179 3.2 12.9 0.00 0.05 0.05 89 1022.2
20200229030111 18 171 3.2 14.5 0.00 0.05 0.05 89 1022.1
20200229023217 18 192 4.8 9.7 0.03 0.05 0.05 89 1021.7
20200229020135 18 174 4.8 16.1 0.03 0.05 0.05 89 1021.2
20200229013102 18 175 3.2 11.3 0.00 0.03 0.03 89 1020.9
20200229011558 18 196 1.6 11.3 0.00 0.03 0.03 89 1020.7
20200229005604 18 213 8.0 16.1 0.00 0.03 0.03 89 1020.3
20200229003228 18 194 3.2 9.7 0.00 0.03 0.03 88 1020.0
20200229000237 18 204 3.2 9.7 0.00 0.03 0.03 88 1020.0
20200228234617 18 200 9.7 17.7 0.00 0.03 0.03 88 1019.9
20200228233043 18 227 11.3 16.1 0.00 0.03 0.03 88 1019.9
20200228230318 18 227 11.3 24.1 0.00 0.03 0.03 88 1019.9
20200228224740 18 223 17.7 29.0 0.00 0.03 0.03 88 1019.7
20200228223126 18 205 11.3 24.1 0.00 0.03 0.03 88 1019.7
20200228220248 18 194 16.1 25.7 0.03 0.03 0.03 88 1019.6
20200228214609 18 210 11.3 29.0 0.03 0.03 0.03 88 1019.5
20200228211712 18 200 11.3 33.8 0.00 0.00 0.00 87 1019.8
20200228210057 19 217 20.9 37.0 0.00 0.00 0.00 85 1019.6
20200228204549 19 223 11.3 25.7 0.00 0.00 0.00 85 1019.5
20200228201828 19 254 11.3 29.0 0.00 0.00 0.00 85 1019.9
20200228200120 19 229 9.7 24.1 0.00 0.00 0.00 85 1020.0
20200228194623 19 214 12.9 29.0 0.00 0.00 0.00 85 1020.1
20200228191652 20 152 6.4 27.4 0.00 0.00 0.00 82 1020.3
20200228190052 19 194 3.2 16.1 0.00 0.00 0.00 83 1020.4
20200228184601 18 153 9.7 25.7 0.00 0.00 0.00 84 1020.6
20200228181559 19 213 9.7 25.7 0.00 0.00 0.00 83 1021.0
20200228175253 19 175 8.0 17.7 0.00 0.00 0.00 83 1021.6
20200228170414 19 189 6.4 19.3 0.00 0.00 0.00 81 1021.9
20200228164713 18 142 4.8 16.1 0.00 0.00 0.00 81 1021.9
20200228161704 18 137 6.4 12.9 0.00 0.00 0.00 82 1021.9
20200228160046 18 184 4.8 12.9 0.00 0.00 0.00 82 1022.0
20200228154703 18 163 4.8 16.1 0.00 0.00 0.00 82 1021.8
20200228151630 17 182 3.2 17.7 0.00 0.00 0.00 82 1021.4
20200228145415 17 177 4.8 11.3 0.00 0.00 0.00 83 1021.2
20200228141624 16 148 1.6 8.0 0.00 0.00 0.00 84 1020.9
20200228140047 16 151 1.6 8.0 0.00 0.00 0.00 84 1020.7
20200228134059 16 178 3.2 11.3 0.00 0.00 0.00 85 1020.4
20200228132117 16 175 0.0 8.0 0.00 0.00 0.00 85 1020.2
20200228130155 16 147 3.2 9.7 0.00 0.00 0.00 85 1020.0
20200228123137 16 182 0.0 6.4 0.00 0.00 0.00 84 1019.8
20200228121138 16 159 1.6 6.4 0.00 0.00 0.00 84 1019.3
20200228114707 16 167 1.6 6.4 0.00 0.00 0.00 84 1019.1
20200228111536 16 160 1.6 9.7 0.00 0.00 0.00 83 1018.8
20200228104625 16 176 3.2 11.3 0.00 0.00 0.00 83 1018.8
20200228101651 16 175 1.6 8.0 0.00 0.00 0.00 83 1019.0
20200228100118 16 176 0.0 9.7 0.00 0.00 0.00 83 1018.9
20200228093208 17 148 3.2 9.7 0.00 0.00 0.00 83 1018.9
20200228091627 17 134 3.2 9.7 0.00 0.00 0.00 83 1019.1
20200228084603 17 159 3.2 9.7 0.00 0.00 0.00 83 1019.4
20200228083111 17 157 1.6 8.0 0.00 0.00 0.00 83 1019.5
20200228080121 17 167 3.2 8.0 0.00 0.00 0.00 83 1019.6